Time;durP1;ratioP1;P1;durP2;ratioP2;P2;SDS_P1;SDS_P2;PMS_P1;PMS_P2;Temp;Humidity;BMP_temperature;BMP_pressure;BME280_temperature;BME280_humidity;BME280_pressure;Samples;Min_cycle;Max_cycle;Signal;HPM_P1;HPM_P2
2023/04/30 00:00:12;;;;;;;9.65;5.95;;;13.40;99.90;;;;;;5052415;28;20086;-54
2023/04/30 00:02:38;;;;;;;7.78;5.28;;;13.60;99.90;;;;;;5053712;28;20040;-54
2023/04/30 00:05:04;;;;;;;11.23;6.88;;;13.50;99.90;;;;;;5065536;28;20183;-54
2023/04/30 00:07:30;;;;;;;9.63;5.13;;;13.60;99.90;;;;;;5055041;28;20502;-53
2023/04/30 00:09:56;;;;;;;8.32;5.32;;;13.60;99.90;;;;;;5049597;28;20072;-54
2023/04/30 00:12:22;;;;;;;9.10;4.68;;;13.60;99.90;;;;;;5052120;28;20052;-54
2023/04/30 00:14:48;;;;;;;11.27;4.93;;;13.60;99.90;;;;;;5055505;28;20022;-53
2023/04/30 00:17:14;;;;;;;9.68;6.03;;;13.60;99.90;;;;;;5052797;28;20029;-54
2023/04/30 00:19:41;;;;;;;13.90;5.72;;;13.60;99.90;;;;;;5053422;28;20135;-54
2023/04/30 00:22:07;;;;;;;6.97;4.68;;;13.60;99.90;;;;;;5052002;28;20065;-54
2023/04/30 00:24:32;;;;;;;6.53;4.60;;;13.70;99.90;;;;;;5051398;28;20096;-54
2023/04/30 00:26:58;;;;;;;6.90;4.93;;;13.60;99.90;;;;;;5053278;28;20504;-54
2023/04/30 00:29:24;;;;;;;5.60;3.95;;;13.60;99.90;;;;;;5052910;28;20120;-53
2023/04/30 00:31:49;;;;;;;6.88;4.15;;;13.50;99.90;;;;;;5069002;28;20051;-54
2023/04/30 00:34:15;;;;;;;5.60;4.18;;;13.40;99.90;;;;;;5052707;28;20087;-53
2023/04/30 00:36:41;;;;;;;3.72;3.00;;;13.30;99.90;;;;;;5048909;28;20079;-53
2023/04/30 00:39:06;;;;;;;5.05;3.70;;;13.10;99.90;;;;;;5038383;28;20029;-53
2023/04/30 00:41:34;;;;;;;4.75;3.33;;;13.00;99.90;;;;;;5036035;28;20049;-53
2023/04/30 00:44:01;;;;;;;3.95;2.85;;;13.00;99.90;;;;;;5045662;28;20073;-54
2023/04/30 00:46:27;;;;;;;5.90;3.53;;;13.00;99.90;;;;;;5061268;28;20047;-54
2023/04/30 00:48:53;;;;;;;5.22;3.78;;;13.10;99.90;;;;;;5054615;28;20290;-54
2023/04/30 00:51:19;;;;;;;7.13;3.70;;;13.10;99.90;;;;;;5024454;28;20484;-53
2023/04/30 00:53:45;;;;;;;3.95;3.33;;;13.00;99.90;;;;;;5035604;28;20072;-53
2023/04/30 00:56:15;;;;;;;5.22;3.63;;;13.10;99.90;;;;;;5057508;28;20497;-53
2023/04/30 00:58:41;;;;;;;4.60;3.70;;;13.10;99.90;;;;;;5054752;28;20044;-54
2023/04/30 01:01:07;;;;;;;5.63;3.80;;;13.20;99.90;;;;;;5025645;28;20046;-53
2023/04/30 01:03:34;;;;;;;6.65;3.92;;;13.20;99.90;;;;;;5053601;28;20041;-54
2023/04/30 01:06:02;;;;;;;8.32;3.60;;;13.10;99.90;;;;;;5056610;28;20543;-54
2023/04/30 01:08:29;;;;;;;4.70;3.83;;;13.20;99.90;;;;;;5061148;28;20104;-52
2023/04/30 01:11:16;;;;;;;5.25;3.38;;;13.10;99.90;;;;;;5058455;28;20036;-53
2023/04/30 01:13:51;;;;;;;4.70;3.70;;;13.00;99.90;;;;;;5056714;28;20037;-53
2023/04/30 01:16:26;;;;;;;5.07;4.22;;;13.10;99.90;;;;;;5037888;28;20033;-53
2023/04/30 01:18:56;;;;;;;6.03;4.45;;;13.20;99.90;;;;;;5033963;28;20033;-54
2023/04/30 01:21:23;;;;;;;9.82;4.45;;;13.30;99.90;;;;;;5036570;28;20101;-54
2023/04/30 01:24:10;;;;;;;8.30;4.85;;;13.30;99.90;;;;;;5037927;28;20022;-54
2023/04/30 01:27:04;;;;;;;6.80;3.67;;;13.30;99.90;;;;;;5037307;28;20022;-54
2023/04/30 01:29:33;;;;;;;5.45;3.60;;;13.30;99.90;;;;;;5035528;28;20026;-53
2023/04/30 01:31:59;;;;;;;7.13;4.13;;;13.30;99.90;;;;;;5036090;28;20036;-55
2023/04/30 01:34:25;;;;;;;8.45;4.32;;;13.30;99.90;;;;;;5035164;28;20026;-53
2023/04/30 01:37:09;;;;;;;6.72;4.70;;;13.30;99.90;;;;;;5037179;28;20029;-52
2023/04/30 01:39:49;;;;;;;4.78;3.58;;;13.40;99.90;;;;;;5056570;28;20046;-53
2023/04/30 01:42:32;;;;;;;5.28;3.92;;;13.30;99.90;;;;;;5035305;28;20025;-53
2023/04/30 01:45:23;;;;;;;4.85;3.97;;;13.20;99.90;;;;;;5034913;28;20409;-54
2023/04/30 01:48:15;;;;;;;5.70;4.03;;;13.20;99.90;;;;;;5022849;28;20033;-54
2023/04/30 01:51:37;;;;;;;5.55;3.85;;;13.20;99.90;;;;;;5011904;28;20485;-54
2023/04/30 01:54:10;;;;;;;4.63;3.33;;;13.00;99.90;;;;;;5012052;28;20045;-53
2023/04/30 01:56:43;;;;;;;6.28;4.03;;;13.00;99.90;;;;;;5011041;28;20413;-53
2023/04/30 01:59:10;;;;;;;4.63;3.75;;;12.90;99.90;;;;;;5011718;28;20381;-53
2023/04/30 02:01:36;;;;;;;4.90;4.18;;;12.80;99.90;;;;;;4994890;28;20057;-53
2023/04/30 02:04:03;;;;;;;5.50;3.40;;;12.70;99.90;;;;;;5012392;28;20038;-53
2023/04/30 02:06:30;;;;;;;4.68;3.50;;;12.70;99.90;;;;;;5012323;28;20037;-54
2023/04/30 02:09:01;;;;;;;6.80;4.78;;;12.70;99.90;;;;;;5011667;28;20038;-53
2023/04/30 02:11:28;;;;;;;6.05;3.40;;;12.70;99.90;;;;;;5011566;28;20484;-54
2023/04/30 02:13:53;;;;;;;7.85;4.85;;;12.60;99.90;;;;;;5012239;28;20117;-53
2023/04/30 02:16:19;;;;;;;8.50;4.80;;;12.50;99.90;;;;;;5011623;28;20132;-52
2023/04/30 02:18:45;;;;;;;5.93;4.15;;;12.50;99.90;;;;;;5011622;28;20026;-52
2023/04/30 02:21:11;;;;;;;6.07;4.03;;;12.50;99.90;;;;;;5011665;28;20116;-53
2023/04/30 02:23:37;;;;;;;6.30;4.07;;;12.60;99.90;;;;;;5014642;28;20052;-52
2023/04/30 02:26:02;;;;;;;6.40;4.18;;;12.50;99.90;;;;;;5035318;28;20488;-53
2023/04/30 02:28:28;;;;;;;6.45;4.10;;;12.40;99.90;;;;;;5050344;28;20393;-54
2023/04/30 02:30:54;;;;;;;5.50;3.80;;;12.30;99.90;;;;;;5035854;28;20038;-53
2023/04/30 02:33:20;;;;;;;4.95;4.15;;;12.40;99.90;;;;;;5036172;28;20025;-53
2023/04/30 02:35:46;;;;;;;5.57;4.03;;;12.40;99.90;;;;;;5036009;28;20019;-53
2023/04/30 02:38:12;;;;;;;5.53;3.97;;;12.50;99.90;;;;;;5016251;28;20042;-54
2023/04/30 02:40:39;;;;;;;5.35;3.50;;;12.60;99.90;;;;;;5033643;28;20017;-53
2023/04/30 02:43:05;;;;;;;5.65;4.03;;;12.60;99.90;;;;;;5037652;28;20075;-54
2023/04/30 02:45:31;;;;;;;6.93;4.65;;;12.70;99.90;;;;;;5036376;28;20045;-53
2023/04/30 02:47:56;;;;;;;5.85;3.83;;;12.70;99.90;;;;;;5038094;28;20022;-53
2023/04/30 02:50:22;;;;;;;7.40;4.10;;;12.80;99.90;;;;;;5035099;28;20508;-54
2023/04/30 02:52:48;;;;;;;7.63;4.65;;;12.80;99.90;;;;;;5037240;28;20071;-53
2023/04/30 02:55:13;;;;;;;5.07;3.83;;;12.70;99.90;;;;;;5034061;28;20029;-53
2023/04/30 02:57:39;;;;;;;7.55;4.35;;;12.70;99.90;;;;;;5034918;28;20036;-53
2023/04/30 03:00:06;;;;;;;5.85;3.95;;;12.60;99.90;;;;;;5035351;28;20043;-53
2023/04/30 03:02:31;;;;;;;5.60;3.65;;;12.70;99.90;;;;;;5048670;28;20033;-54
2023/04/30 03:04:57;;;;;;;7.32;4.65;;;12.60;99.90;;;;;;5034152;28;20436;-53
2023/04/30 03:07:23;;;;;;;6.57;4.35;;;12.50;99.90;;;;;;5033981;28;20064;-52
2023/04/30 03:09:49;;;;;;;5.32;3.78;;;12.50;99.90;;;;;;5033595;28;20075;-53
2023/04/30 03:12:15;;;;;;;6.15;3.83;;;12.50;99.90;;;;;;5035723;28;20032;-53
2023/04/30 03:14:41;;;;;;;5.85;4.20;;;12.50;99.90;;;;;;5033870;28;20025;-53
2023/04/30 03:17:07;;;;;;;5.15;4.15;;;;;;;;;;5033858;28;20025;-54
2023/04/30 03:19:32;;;;;;;3.67;2.85;;;11.40;99.90;;;;;;5036057;28;20126;-53
2023/04/30 03:21:58;;;;;;;4.30;3.38;;;12.20;99.90;;;;;;5037691;28;20477;-53
2023/04/30 03:24:24;;;;;;;3.97;2.75;;;11.90;99.90;;;;;;5037086;28;20143;-53
2023/04/30 03:26:50;;;;;;;4.15;2.60;;;11.90;99.90;;;;;;5032342;28;20042;-53
2023/04/30 03:29:16;;;;;;;3.40;3.10;;;11.90;99.90;;;;;;5050159;28;20045;-54
2023/04/30 03:31:41;;;;;;;3.25;2.85;;;11.80;99.90;;;;;;5033386;28;20167;-54
2023/04/30 03:34:07;;;;;;;4.95;3.13;;;;;;;;;;5043989;28;20485;-55
2023/04/30 03:36:33;;;;;;;3.70;2.92;;;11.80;99.90;;;;;;5033851;28;20527;-54
2023/04/30 03:39:00;;;;;;;3.80;2.50;;;11.50;99.90;;;;;;5032961;28;20029;-53
2023/04/30 03:41:25;;;;;;;3.30;2.78;;;11.40;99.90;;;;;;5036416;28;20477;-54
2023/04/30 03:43:51;;;;;;;2.97;2.28;;;11.40;99.90;;;;;;5033685;28;20029;-53
2023/04/30 03:46:17;;;;;;;7.50;2.92;;;11.50;99.90;;;;;;5038149;28;20036;-53
2023/04/30 03:48:43;;;;;;;3.80;3.13;;;11.40;99.90;;;;;;5039248;28;20072;-53
2023/04/30 03:51:09;;;;;;;3.22;2.70;;;11.30;99.90;;;;;;5033215;28;20071;-53
2023/04/30 03:53:34;;;;;;;4.00;2.63;;;11.40;99.90;;;;;;5048835;28;20033;-54
2023/04/30 03:56:01;;;;;;;4.63;2.72;;;11.40;99.90;;;;;;5038905;28;20021;-54
2023/04/30 03:58:26;;;;;;;5.05;3.08;;;11.40;99.90;;;;;;5033231;28;20034;-53
2023/04/30 04:00:52;;;;;;;6.10;3.05;;;11.30;99.90;;;;;;5049133;28;20044;-54
2023/04/30 04:03:19;;;;;;;3.78;3.22;;;11.40;99.90;;;;;;5038169;28;20025;-53
2023/04/30 04:05:45;;;;;;;3.13;2.80;;;11.50;99.90;;;;;;5034373;28;20500;-54
2023/04/30 04:08:11;;;;;;;5.03;3.10;;;11.50;99.90;;;;;;5033157;28;20044;-53
2023/04/30 04:10:38;;;;;;;3.15;2.03;;;11.50;99.90;;;;;;5034405;28;20022;-53
2023/04/30 04:13:05;;;;;;;4.10;2.97;;;11.60;99.90;;;;;;5040610;28;20029;-53
2023/04/30 04:15:31;;;;;;;3.53;2.92;;;11.80;99.90;;;;;;5037821;28;20466;-53
2023/04/30 04:17:57;;;;;;;4.15;2.72;;;11.80;99.90;;;;;;5035327;28;20508;-55
2023/04/30 04:20:22;;;;;;;4.03;2.95;;;11.80;99.90;;;;;;5040067;28;20029;-54
2023/04/30 04:22:48;;;;;;;4.03;2.80;;;11.90;99.90;;;;;;5036449;28;20091;-54
2023/04/30 04:25:16;;;;;;;3.25;2.70;;;11.90;99.90;;;;;;5036602;28;20049;-53
2023/04/30 04:27:41;;;;;;;5.50;2.90;;;12.00;99.90;;;;;;5037865;28;20033;-54
2023/04/30 04:30:08;;;;;;;4.85;2.72;;;12.00;99.90;;;;;;5035457;28;20558;-54
2023/04/30 04:32:45;;;;;;;3.58;3.17;;;12.10;99.90;;;;;;5034310;28;20029;-53
2023/04/30 04:35:14;;;;;;;3.05;2.50;;;12.00;99.90;;;;;;5054947;28;20041;-53
2023/04/30 04:37:39;;;;;;;3.65;2.83;;;12.10;99.90;;;;;;5050863;28;20049;-54
2023/04/30 04:40:25;;;;;;;4.65;3.25;;;12.20;99.90;;;;;;5051332;28;20059;-53
2023/04/30 04:42:51;;;;;;;2.03;1.85;;;12.40;99.90;;;;;;5054605;28;20087;-54
2023/04/30 04:45:18;;;;;;;2.90;1.98;;;12.50;99.90;;;;;;5035409;28;20088;-54
2023/04/30 04:47:43;;;;;;;3.90;2.78;;;12.60;99.90;;;;;;5053954;28;20484;-54
2023/04/30 04:50:10;;;;;;;3.70;3.08;;;12.80;99.90;;;;;;5058711;28;20087;-53
2023/04/30 04:52:36;;;;;;;3.53;2.70;;;13.00;99.90;;;;;;5020336;28;20091;-54
2023/04/30 04:55:02;;;;;;;3.22;2.47;;;13.20;99.90;;;;;;5055776;28;20044;-54
2023/04/30 04:57:27;;;;;;;5.05;2.95;;;13.40;99.90;;;;;;5056234;28;20064;-53
2023/04/30 04:59:53;;;;;;;2.20;1.70;;;13.50;99.90;;;;;;5056297;28;20060;-54
2023/04/30 05:02:20;;;;;;;2.97;1.88;;;13.60;99.90;;;;;;5063638;28;20048;-54
2023/04/30 05:04:46;;;;;;;3.70;2.72;;;13.80;99.90;;;;;;5054517;28;20481;-54
2023/04/30 05:07:12;;;;;;;3.95;2.88;;;13.80;99.90;;;;;;5052320;28;20041;-54
2023/04/30 05:09:37;;;;;;;2.15;1.77;;;14.20;99.90;;;;;;5035946;28;20036;-53
2023/04/30 05:12:03;;;;;;;6.20;3.33;;;;;;;;;;5053716;28;20054;-53
2023/04/30 05:14:29;;;;;;;4.30;2.90;;;14.20;99.90;;;;;;5057297;28;20061;-54
2023/04/30 05:16:55;;;;;;;3.72;3.25;;;;;;;;;;5055999;28;20056;-54
2023/04/30 05:19:21;;;;;;;3.20;2.55;;;14.60;99.90;;;;;;5051196;28;20036;-54
2023/04/30 05:21:47;;;;;;;3.20;2.45;;;;;;;;;;5069004;28;20041;-54
2023/04/30 05:24:13;;;;;;;4.65;3.28;;;;;;;;;;5053175;28;20060;-54
2023/04/30 05:26:39;;;;;;;3.70;2.95;;;;;;;;;;5030698;28;20041;-54
2023/04/30 05:29:05;;;;;;;4.43;2.47;;;;;;;;;;5033249;28;20124;-54
2023/04/30 05:31:31;;;;;;;3.65;2.83;;;;;;;;;;5033687;28;20033;-54
2023/04/30 05:33:57;;;;;;;3.58;2.75;;;;;;;;;;5038503;28;20524;-54
2023/04/30 05:36:23;;;;;;;4.05;3.30;;;;;;;;;;5042010;28;20030;-55
2023/04/30 05:38:50;;;;;;;5.45;2.70;;;;;;;;;;5034096;28;20075;-54
2023/04/30 05:41:16;;;;;;;3.50;2.72;;;;;;;;;;5054545;28;20066;-55
2023/04/30 05:43:42;;;;;;;2.95;2.22;;;15.50;99.90;;;;;;5037987;28;20032;-54
2023/04/30 05:46:08;;;;;;;3.95;2.70;;;;;;;;;;5038446;28;20452;-52
2023/04/30 05:48:34;;;;;;;3.92;2.83;;;;;;;;;;5036268;28;20030;-58
2023/04/30 05:51:00;;;;;;;1.50;1.38;;;16.30;99.90;;;;;;5038665;28;20431;-57
2023/04/30 05:53:25;;;;;;;3.40;2.53;;;16.10;99.90;;;;;;5034920;28;20033;-57
2023/04/30 05:55:51;;;;;;;3.70;2.38;;;16.00;99.90;;;;;;5036696;28;20095;-57
2023/04/30 05:58:17;;;;;;;4.70;2.78;;;16.00;99.90;;;;;;5036925;28;20484;-50
2023/04/30 06:00:43;;;;;;;3.53;2.60;;;16.10;99.90;;;;;;5033204;28;20034;-53
2023/04/30 06:03:08;;;;;;;2.15;1.95;;;16.10;99.90;;;;;;5033467;28;20053;-57
2023/04/30 06:05:35;;;;;;;2.38;1.83;;;16.00;99.90;;;;;;5051649;28;20044;-57
2023/04/30 06:08:00;;;;;;;4.82;2.90;;;15.80;99.90;;;;;;5036001;28;20087;-57
2023/04/30 06:10:26;;;;;;;2.58;2.15;;;15.90;99.90;;;;;;5034883;28;20516;-58
2023/04/30 06:12:52;;;;;;;4.20;3.03;;;15.80;99.90;;;;;;5035679;28;20415;-54
2023/04/30 06:15:17;;;;;;;3.38;2.92;;;15.80;99.90;;;;;;5037869;28;20036;-54
2023/04/30 06:17:43;;;;;;;2.42;1.98;;;15.70;99.90;;;;;;5036003;28;20018;-57
2023/04/30 06:20:09;;;;;;;4.03;2.72;;;15.60;99.90;;;;;;5036776;28;20026;-55
2023/04/30 06:22:35;;;;;;;4.45;2.88;;;15.80;99.90;;;;;;5051367;28;20369;-55
2023/04/30 06:25:00;;;;;;;4.30;3.00;;;15.90;99.90;;;;;;5035585;28;20960;-55
2023/04/30 06:27:31;;;;;;;4.32;2.63;;;16.00;99.90;;;;;;5049860;28;20037;-55
2023/04/30 06:29:57;;;;;;;3.13;2.13;;;16.10;99.90;;;;;;5039549;28;20061;-55
2023/04/30 06:32:23;;;;;;;4.22;2.97;;;16.10;99.90;;;;;;5035300;28;20440;-55
2023/04/30 06:34:48;;;;;;;2.40;1.50;;;16.20;99.90;;;;;;5035138;28;20022;-55
2023/04/30 06:37:14;;;;;;;3.00;2.45;;;16.10;99.90;;;;;;5050826;28;20127;-55
2023/04/30 06:39:40;;;;;;;5.10;2.80;;;;;;;;;;5052339;28;20029;-55
2023/04/30 06:42:06;;;;;;;2.95;2.60;;;16.50;99.90;;;;;;5035415;28;20029;-55
2023/04/30 06:44:31;;;;;;;5.03;2.78;;;16.60;99.90;;;;;;5035768;28;20366;-55
2023/04/30 06:46:57;;;;;;;1.83;1.48;;;16.50;99.90;;;;;;5034259;28;20043;-55
2023/04/30 06:49:23;;;;;;;2.58;1.83;;;16.50;99.90;;;;;;5034922;28;20038;-55
2023/04/30 06:51:48;;;;;;;3.28;2.88;;;16.60;99.90;;;;;;5053125;28;20079;-55
2023/04/30 06:54:14;;;;;;;2.78;2.42;;;16.70;99.90;;;;;;5034810;28;20645;-55
2023/04/30 06:56:40;;;;;;;3.38;2.85;;;16.50;99.90;;;;;;5037853;28;20017;-55
2023/04/30 06:59:06;;;;;;;4.00;2.95;;;16.90;99.90;;;;;;5050149;28;20042;-55
2023/04/30 07:01:32;;;;;;;4.55;3.20;;;16.90;99.90;;;;;;5034678;28;20033;-55
2023/04/30 07:03:58;;;;;;;3.80;2.65;;;16.90;99.90;;;;;;5035103;28;20080;-55
2023/04/30 07:06:24;;;;;;;1.30;0.85;;;;;;;;;;5035065;28;20072;-55
2023/04/30 07:08:51;;;;;;;4.45;2.03;;;;;;;;;;5034797;28;20060;-55
2023/04/30 07:11:17;;;;;;;3.10;1.67;;;;;;;;;;5034624;28;20038;-55
2023/04/30 07:13:43;;;;;;;6.30;2.80;;;;;;;;;;5035638;28;20028;-55
2023/04/30 07:16:09;;;;;;;4.03;2.13;;;17.50;99.90;;;;;;5034709;28;20029;-55
2023/04/30 07:18:36;;;;;;;4.13;2.83;;;17.30;99.90;;;;;;5049912;28;20400;-55
2023/04/30 07:21:03;;;;;;;4.50;2.75;;;17.50;99.90;;;;;;5036165;28;20465;-55
2023/04/30 07:23:28;;;;;;;3.25;2.33;;;17.50;99.90;;;;;;5054971;28;20034;-55
2023/04/30 07:25:54;;;;;;;2.95;2.53;;;17.40;99.90;;;;;;5033747;28;20075;-55
2023/04/30 07:28:20;;;;;;;3.88;2.55;;;17.50;99.90;;;;;;5051027;28;20038;-55
2023/04/30 07:30:45;;;;;;;3.33;2.60;;;17.80;99.90;;;;;;5048035;28;20041;-55
2023/04/30 07:33:12;;;;;;;3.63;2.42;;;;;;;;;;5037731;28;20048;-55
2023/04/30 07:35:38;;;;;;;3.08;2.70;;;;;;;;;;5037849;28;20086;-55
2023/04/30 07:38:04;;;;;;;3.45;2.50;;;;;;;;;;5039493;28;20029;-55
2023/04/30 07:40:30;;;;;;;3.83;2.65;;;18.70;99.90;;;;;;5032881;28;20038;-55
2023/04/30 07:42:56;;;;;;;3.05;2.28;;;18.40;99.90;;;;;;5035989;28;20037;-55
2023/04/30 07:45:22;;;;;;;2.22;2.03;;;18.50;99.90;;;;;;5037735;28;20037;-55
2023/04/30 07:47:48;;;;;;;4.53;2.50;;;18.70;99.90;;;;;;5054906;28;20037;-55
2023/04/30 07:50:14;;;;;;;3.50;2.70;;;;;;;;;;5041495;28;20383;-55
2023/04/30 07:52:40;;;;;;;3.28;2.55;;;18.90;99.90;;;;;;5035486;28;20053;-55
2023/04/30 07:55:06;;;;;;;3.28;2.70;;;19.00;99.90;;;;;;5036914;28;20059;-55
2023/04/30 07:57:32;;;;;;;2.15;1.33;;;19.10;99.90;;;;;;5056219;28;20474;-54
2023/04/30 07:59:58;;;;;;;3.95;2.75;;;19.00;99.90;;;;;;5054178;28;20037;-54
2023/04/30 08:02:23;;;;;;;3.35;2.58;;;19.40;99.90;;;;;;5042127;28;20029;-54
2023/04/30 08:04:49;;;;;;;3.85;2.53;;;19.50;99.90;;;;;;5037235;28;20037;-54
2023/04/30 08:07:15;;;;;;;3.80;2.55;;;19.40;99.90;;;;;;5037150;28;20070;-54
2023/04/30 08:09:40;;;;;;;3.30;3.00;;;19.80;99.90;;;;;;5015481;28;20043;-54
2023/04/30 08:12:08;;;;;;;3.22;2.38;;;19.80;99.90;;;;;;5037332;28;20026;-54
2023/04/30 08:14:34;;;;;;;3.05;2.63;;;;;;;;;;5039343;28;20025;-54
2023/04/30 08:17:01;;;;;;;2.63;2.15;;;;;;;;;;5052980;28;20037;-54
2023/04/30 08:19:27;;;;;;;3.30;2.17;;;;;;;;;;5039567;28;20547;-54
2023/04/30 08:21:53;;;;;;;3.72;2.63;;;;;;;;;;5036424;28;20084;-54
2023/04/30 08:24:20;;;;;;;3.92;2.63;;;;;;;;;;5036077;28;20060;-54
2023/04/30 08:26:46;;;;;;;3.10;2.33;;;;;;;;;;5037434;28;20088;-54
2023/04/30 08:29:11;;;;;;;3.28;2.65;;;19.70;99.90;;;;;;5019864;28;20038;-54
2023/04/30 08:31:38;;;;;;;2.97;2.42;;;;;;;;;;5040060;28;20028;-54
2023/04/30 08:34:04;;;;;;;3.58;2.53;;;;;;;;;;5040714;28;20040;-53
2023/04/30 08:36:30;;;;;;;3.55;2.80;;;19.20;99.90;;;;;;5056371;28;20126;-54
2023/04/30 08:38:56;;;;;;;3.45;2.28;;;19.50;99.90;;;;;;5038471;28;20083;-53
2023/04/30 08:41:25;;;;;;;4.55;2.63;;;19.50;99.90;;;;;;5036579;28;20037;-54
2023/04/30 08:43:52;;;;;;;3.65;2.80;;;;;;;;;;5036375;28;20032;-54
2023/04/30 08:46:22;;;;;;;4.15;2.80;;;;;;;;;;5038114;28;20029;-54
2023/04/30 08:48:48;;;;;;;2.75;2.38;;;;;;;;;;5032678;28;20101;-54
2023/04/30 08:51:14;;;;;;;3.88;2.30;;;;;;;;;;5051821;28;20040;-54
2023/04/30 08:53:41;;;;;;;5.20;3.05;;;;;;;;;;5040502;28;20029;-54
2023/04/30 08:56:09;;;;;;;5.90;3.30;;;;;;;;;;5038837;28;20040;-53
2023/04/30 08:58:36;;;;;;;4.20;3.25;;;20.70;99.90;;;;;;5040148;28;20545;-53
2023/04/30 09:01:05;;;;;;;3.45;2.83;;;20.50;99.90;;;;;;5034902;28;20088;-53
2023/04/30 09:03:31;;;;;;;3.75;2.90;;;20.70;99.90;;;;;;5035834;28;20025;-53
2023/04/30 09:05:57;;;;;;;4.28;2.90;;;20.60;99.90;;;;;;5037209;28;20366;-54
2023/04/30 09:08:41;;;;;;;3.28;2.20;;;20.60;99.90;;;;;;5036673;28;20025;-53
2023/04/30 09:11:21;;;;;;;4.63;3.42;;;20.70;99.90;;;;;;5035476;28;20397;-53
2023/04/30 09:13:48;;;;;;;4.00;3.05;;;20.90;99.90;;;;;;5036236;28;20041;-53
2023/04/30 09:16:14;;;;;;;5.57;3.30;;;20.90;99.90;;;;;;5036597;28;20036;-54
2023/04/30 09:18:40;;;;;;;2.35;1.92;;;21.20;99.90;;;;;;5035650;28;20112;-53
2023/04/30 09:21:07;;;;;;;4.32;3.30;;;;;;;;;;5036487;28;20032;-54
2023/04/30 09:23:33;;;;;;;4.40;3.08;;;22.00;99.90;;;;;;5037238;28;20057;-54
2023/04/30 09:25:59;;;;;;;3.83;2.53;;;;;;;;;;5037197;28;20088;-54
2023/04/30 09:28:27;;;;;;;3.75;2.90;;;;;;;;;;5054490;28;20037;-54
2023/04/30 09:30:55;;;;;;;4.90;3.17;;;22.30;99.90;;;;;;5036189;28;20503;-53
2023/04/30 09:33:22;;;;;;;3.42;2.38;;;;;;;;;;5039569;28;20485;-54
2023/04/30 09:35:48;;;;;;;2.95;1.85;;;;;;;;;;5056106;28;20108;-54
2023/04/30 09:38:26;;;;;;;4.45;2.90;;;;;;;;;;5033821;28;20025;-55
2023/04/30 09:40:52;;;;;;;3.50;2.83;;;22.70;99.90;;;;;;5036349;28;20484;-54
2023/04/30 09:43:18;;;;;;;5.10;3.35;;;;;;;;;;5036243;28;20096;-54
2023/04/30 09:45:51;;;;;;;3.33;2.53;;;;;;;;;;5036671;28;20041;-55
2023/04/30 09:48:24;;;;;;;1.75;1.45;;;23.20;99.90;;;;;;5037092;28;20057;-55
2023/04/30 09:50:51;;;;;;;0.80;0.75;;;22.70;99.90;;;;;;5038133;28;20120;-54
2023/04/30 09:53:17;;;;;;;3.75;2.22;;;22.20;99.90;;;;;;5050860;28;20120;-55
2023/04/30 09:55:45;;;;;;;1.05;1.02;;;21.90;99.90;;;;;;5035372;28;20075;-54
2023/04/30 09:58:12;;;;;;;2.80;2.28;;;21.90;99.90;;;;;;5035964;28;20041;-55
2023/04/30 10:00:38;;;;;;;2.85;2.22;;;22.40;99.90;;;;;;5035921;28;20032;-54
2023/04/30 10:03:09;;;;;;;2.67;2.30;;;;;;;;;;5035629;28;20053;-54
2023/04/30 10:05:41;;;;;;;2.45;2.03;;;;;;;;;;5053989;28;20075;-55
2023/04/30 10:08:07;;;;;;;;;;;;;;;;;;5054322;28;20043;-54
2023/04/30 10:10:33;;;;;;;2.78;2.30;;;;;;;;;;5054732;28;19911;-55
2023/04/30 10:13:03;;;;;;;2.92;2.15;;;;;;;;;;5053336;28;20039;-55
2023/04/30 10:15:38;;;;;;;3.08;2.30;;;;;;;;;;5052868;28;20041;-55
2023/04/30 10:18:10;;;;;;;2.70;2.25;;;;;;;;;;5055065;28;20033;-55
2023/04/30 10:20:38;;;;;;;2.92;2.17;;;;;;;;;;5051556;28;20037;-55
2023/04/30 10:23:04;;;;;;;3.70;2.38;;;21.60;99.90;;;;;;5050133;28;20029;-56
2023/04/30 10:25:31;;;;;;;4.05;2.95;;;;;;;;;;5053688;28;20098;-57
2023/04/30 10:27:58;;;;;;;2.10;1.85;;;;;;;;;;5034660;28;20542;-58
2023/04/30 10:30:24;;;;;;;2.33;1.67;;;;;;;;;;5051989;28;20544;-56
2023/04/30 10:33:10;;;;;;;2.83;1.95;;;23.10;99.90;;;;;;5052257;28;20081;-60
2023/04/30 10:35:44;;;;;;;3.38;1.90;;;;;;;;;;5049515;28;20021;-54
2023/04/30 10:38:22;;;;;;;2.30;1.20;;;;;;;;;;5036415;28;20453;-58
2023/04/30 10:40:48;;;;;;;2.08;1.70;;;;;;;;;;5034768;28;20049;-56
2023/04/30 10:43:18;;;;;;;3.25;2.22;;;;;;;;;;5031803;28;20029;-56
2023/04/30 10:45:44;;;;;;;2.65;1.88;;;;;;;;;;5035928;28;20072;-57
2023/04/30 10:48:10;;;;;;;1.73;1.42;;;;;;;;;;5032311;28;20032;-57
2023/04/30 10:50:41;;;;;;;2.63;1.80;;;21.70;99.90;;;;;;5030288;28;20021;-57
2023/04/30 10:53:07;;;;;;;2.80;2.28;;;;;;;;;;5035647;28;20106;-59
2023/04/30 10:55:38;;;;;;;2.47;1.80;;;;;;;;;;5034942;28;20028;-58
2023/04/30 10:58:26;;;;;;;2.42;1.67;;;21.40;99.90;;;;;;5054085;28;20052;-58
2023/04/30 11:01:04;;;;;;;2.35;1.70;;;21.30;99.90;;;;;;5037104;28;20030;-59
2023/04/30 11:03:32;;;;;;;2.90;1.42;;;21.90;99.90;;;;;;5037920;28;20040;-57
2023/04/30 11:06:03;;;;;;;4.72;2.13;;;22.60;99.90;;;;;;5034494;28;20033;-59
2023/04/30 11:08:33;;;;;;;2.33;1.40;;;;;;;;;;5032030;28;20033;-58
2023/04/30 11:11:00;;;;;;;3.03;1.20;;;23.30;99.90;;;;;;5032316;28;20563;-59
2023/04/30 11:13:27;;;;;;;1.27;1.15;;;23.10;99.90;;;;;;5034485;28;20032;-59
2023/04/30 11:15:53;;;;;;;1.27;1.10;;;22.80;99.90;;;;;;5031402;28;20036;-59
2023/04/30 11:18:19;;;;;;;2.03;1.83;;;22.60;99.90;;;;;;5015222;28;20108;-59
2023/04/30 11:20:50;;;;;;;2.78;0.77;;;22.70;99.90;;;;;;5032110;28;20026;-58
2023/04/30 11:23:21;;;;;;;1.20;0.98;;;22.80;99.90;;;;;;5031796;28;20033;-60
2023/04/30 11:25:48;;;;;;;1.70;1.42;;;;;;;;;;5035966;28;20052;-60
2023/04/30 11:28:19;;;;;;;1.50;1.40;;;22.00;99.90;;;;;;5034019;28;20528;-60
2023/04/30 11:30:45;;;;;;;;;;;;;;;;;;5032210;28;20417;-60
2023/04/30 11:33:11;;;;;;;1.65;1.42;;;22.20;99.90;;;;;;5034148;28;19909;-58
2023/04/30 11:35:38;;;;;;;1.25;1.15;;;22.70;99.90;;;;;;5035375;28;20084;-59
2023/04/30 11:38:04;;;;;;;1.33;1.20;;;;;;;;;;5035754;28;20428;-58
2023/04/30 11:40:35;;;;;;;1.08;0.98;;;;;;;;;;5033050;28;20666;-59
2023/04/30 11:43:01;;;;;;;2.28;1.52;;;;;;;;;;5032923;28;20021;-59
2023/04/30 11:45:27;;;;;;;1.80;1.10;;;;;;;;;;5034570;28;20040;-59
2023/04/30 11:47:54;;;;;;;1.50;1.40;;;;;;;;;;5033546;28;20066;-59
2023/04/30 11:50:32;;;;;;;1.05;0.95;;;25.10;99.90;;;;;;5036346;28;20022;-59
2023/04/30 11:53:04;;;;;;;4.07;1.60;;;24.50;99.90;;;;;;5030283;28;20049;-56
2023/04/30 11:55:30;;;;;;;1.25;0.98;;;;;;;;;;5032044;28;20104;-56
2023/04/30 11:57:58;;;;;;;2.25;1.50;;;23.70;99.90;;;;;;5046123;28;20400;-52
2023/04/30 12:00:29;;;;;;;2.38;1.45;;;23.30;99.90;;;;;;5032839;28;20117;-51
2023/04/30 12:02:55;;;;;;;1.27;1.10;;;;;;;;;;5034336;28;20028;-61
2023/04/30 12:05:22;;;;;;;1.10;0.80;;;;;;;;;;5032164;28;20116;-59
2023/04/30 12:07:55;;;;;;;2.70;1.70;;;;;;;;;;5031128;28;20029;-62
2023/04/30 12:10:22;;;;;;;2.20;1.20;;;;;;;;;;5035203;28;20053;-58
2023/04/30 12:12:50;;;;;;;1.10;1.00;;;24.40;99.90;;;;;;5038689;28;20038;-61
2023/04/30 12:15:25;;;;;;;1.42;0.90;;;24.40;99.90;;;;;;5031959;28;20037;-60
2023/04/30 12:17:51;;;;;;;0.80;0.80;;;;;;;;;;5030158;28;20033;-63
2023/04/30 12:20:17;;;;;;;1.10;0.90;;;;;;;;;;5015476;28;20079;-60
2023/04/30 12:22:44;;;;;;;2.50;1.65;;;;;;;;;;5032519;28;20493;-60
2023/04/30 12:25:20;;;;;;;1.23;0.90;;;;;;;;;;5032013;28;20045;-60
2023/04/30 12:27:47;;;;;;;1.35;1.10;;;24.30;99.90;;;;;;5028792;28;20042;-60
2023/04/30 12:30:14;;;;;;;2.35;1.33;;;24.10;98.10;;;;;;5032076;28;20030;-60
2023/04/30 12:32:44;;;;;;;3.05;1.17;;;24.10;97.60;;;;;;5033990;28;20384;-60
2023/04/30 12:35:30;;;;;;;1.65;1.00;;;23.50;98.10;;;;;;5035065;28;20045;-59
2023/04/30 12:38:08;;;;;;;2.00;1.45;;;23.00;98.50;;;;;;5036604;28;20119;-60
2023/04/30 12:40:34;;;;;;;1.25;1.15;;;22.80;99.90;;;;;;5038373;28;20057;-59
2023/04/30 12:43:06;;;;;;;1.52;1.02;;;22.40;99.90;;;;;;5035756;28;20060;-59
2023/04/30 12:45:51;;;;;;;1.92;1.52;;;22.30;99.90;;;;;;5037971;28;20029;-60
2023/04/30 12:48:19;;;;;;;1.98;1.40;;;22.20;99.90;;;;;;5030962;28;20040;-60
2023/04/30 12:50:53;;;;;;;1.98;1.50;;;21.90;99.90;;;;;;5038139;28;20093;-60
2023/04/30 12:53:20;;;;;;;3.08;1.15;;;22.00;99.90;;;;;;5036745;28;20025;-61
2023/04/30 12:56:15;;;;;;;1.27;1.05;;;22.20;99.90;;;;;;5039227;28;20029;-61
2023/04/30 12:58:49;;;;;;;1.10;0.80;;;22.50;99.90;;;;;;5039703;28;20108;-61
2023/04/30 13:01:20;;;;;;;1.80;1.33;;;;;;;;;;5036910;28;20366;-60
2023/04/30 13:03:47;;;;;;;0.95;0.85;;;;;;;;;;5036494;28;20416;-61
2023/04/30 13:06:13;;;;;;;1.10;0.95;;;24.10;99.00;;;;;;5040406;28;20065;-61
2023/04/30 13:08:39;;;;;;;0.68;0.68;;;;;;;;;;5052056;28;20026;-61
2023/04/30 13:11:06;;;;;;;1.63;1.25;;;;;;;;;;5038774;28;20022;-60
2023/04/30 13:13:32;;;;;;;1.00;0.73;;;;;;;;;;5051283;28;20076;-60
2023/04/30 13:15:58;;;;;;;0.82;0.68;;;23.20;96.80;;;;;;5036629;28;20034;-62
2023/04/30 13:18:24;;;;;;;0.68;0.63;;;;;;;;;;5033636;28;20048;-60